createdAt,value
2019-06-08T00:00:27.032Z,1006.70
2019-06-08T00:01:27.053Z,1006.69
2019-06-08T00:02:27.054Z,1006.78
2019-06-08T00:03:27.049Z,1006.78
2019-06-08T00:04:27.045Z,1006.73
2019-06-08T00:05:27.057Z,1006.72
2019-06-08T00:06:27.044Z,1006.78
2019-06-08T00:07:27.059Z,1006.77
2019-06-08T00:08:27.060Z,1006.78
2019-06-08T00:09:27.044Z,1006.71
2019-06-08T00:10:27.065Z,1006.74
2019-06-08T00:11:27.053Z,1006.73
2019-06-08T00:12:27.052Z,1006.69
2019-06-08T00:13:27.051Z,1006.74
2019-06-08T00:14:27.063Z,1006.77
2019-06-08T00:15:27.057Z,1006.74
2019-06-08T00:16:27.087Z,1006.67
2019-06-08T00:17:37.776Z,1006.76
2019-06-08T00:18:27.067Z,1006.71
2019-06-08T00:19:27.062Z,1006.74
2019-06-08T00:20:27.063Z,1006.79
2019-06-08T00:21:27.083Z,1006.77
2019-06-08T00:22:27.081Z,1006.86
2019-06-08T00:23:27.085Z,1006.70
2019-06-08T00:24:27.067Z,1006.76
2019-06-08T00:25:27.083Z,1006.74
2019-06-08T00:26:27.074Z,1006.80
2019-06-08T00:27:27.075Z,1006.78
2019-06-08T00:28:27.074Z,1006.89
2019-06-08T00:29:27.117Z,1006.84
2019-06-08T00:30:27.095Z,1006.81
2019-06-08T00:31:27.080Z,1006.76
2019-06-08T00:32:27.112Z,1006.80
2019-06-08T00:33:27.081Z,1006.80
2019-06-08T00:34:27.109Z,1006.81
2019-06-08T00:35:27.094Z,1006.80
2019-06-08T00:36:27.093Z,1006.80
2019-06-08T00:37:27.104Z,1006.73
2019-06-08T00:38:27.096Z,1006.76
2019-06-08T00:39:27.097Z,1006.72
2019-06-08T00:40:27.095Z,1006.78
2019-06-08T00:41:27.091Z,1006.77
2019-06-08T00:42:27.144Z,1006.79
2019-06-08T00:43:27.094Z,1006.75
2019-06-08T00:44:27.107Z,1006.80
2019-06-08T00:45:27.103Z,1006.86
2019-06-08T00:46:27.106Z,1006.75
2019-06-08T00:47:44.945Z,1006.82
2019-06-08T00:48:27.106Z,1006.80
2019-06-08T00:49:27.122Z,1006.77
2019-06-08T00:50:27.104Z,1006.89
2019-06-08T00:51:27.132Z,1006.85
2019-06-08T00:52:27.112Z,1006.91
2019-06-08T00:53:27.143Z,1006.89
2019-06-08T00:54:27.120Z,1006.87
2019-06-08T00:55:27.126Z,1006.92
2019-06-08T00:56:27.115Z,1006.87
2019-06-08T00:57:27.128Z,1006.88
2019-06-08T00:58:27.325Z,1006.86
2019-06-08T00:59:27.121Z,1006.96
2019-06-08T01:00:27.134Z,1006.97
2019-06-08T01:01:28.193Z,1006.93
2019-06-08T01:02:27.135Z,1007.00
2019-06-08T01:03:27.128Z,1006.96
2019-06-08T01:04:27.322Z,1006.98
2019-06-08T01:05:27.121Z,1007.01
2019-06-08T01:06:27.593Z,1007.03
2019-06-08T01:07:27.137Z,1007.06
2019-06-08T01:08:27.473Z,1007.00
2019-06-08T01:09:27.131Z,1007.03
2019-06-08T01:10:27.577Z,1007.01
2019-06-08T01:11:27.146Z,1007.06
2019-06-08T01:12:27.138Z,1007.07
2019-06-08T01:13:27.153Z,1007.12
2019-06-08T01:14:27.206Z,1007.26
2019-06-08T01:15:32.852Z,1007.11
2019-06-08T01:16:27.161Z,1007.20
2019-06-08T01:17:27.584Z,1007.21
2019-06-08T01:18:27.440Z,1007.19
2019-06-08T01:19:27.465Z,1007.29
2019-06-08T01:20:27.551Z,1007.21
2019-06-08T01:21:27.688Z,1007.24
2019-06-08T01:22:27.771Z,1007.23
2019-06-08T01:23:27.884Z,1007.30
2019-06-08T01:24:27.952Z,1007.32
2019-06-08T01:25:27.964Z,1007.33
2019-06-08T01:26:28.173Z,1007.34
2019-06-08T01:27:28.168Z,1007.32
2019-06-08T01:28:28.232Z,1007.36
2019-06-08T01:29:28.367Z,1007.45
2019-06-08T01:30:28.426Z,1007.43
2019-06-08T01:31:28.375Z,1007.40
2019-06-08T01:32:28.469Z,1007.38
2019-06-08T01:33:27.174Z,1007.42
2019-06-08T01:34:27.175Z,1007.47
2019-06-08T01:35:27.163Z,1007.41
2019-06-08T01:36:27.512Z,1007.45
2019-06-08T01:37:27.186Z,1007.42
2019-06-08T01:38:27.244Z,1007.40
2019-06-08T01:39:27.302Z,1007.47
2019-06-08T01:40:27.482Z,1007.52
2019-06-08T01:41:27.766Z,1007.53
2019-06-08T01:42:27.671Z,1007.49
2019-06-08T01:43:27.780Z,1007.51
2019-06-08T01:44:28.088Z,1007.53
2019-06-08T01:45:27.903Z,1007.53
2019-06-08T01:46:28.263Z,1007.53
2019-06-08T01:47:28.243Z,1007.59
2019-06-08T01:48:28.217Z,1007.44
2019-06-08T01:49:28.412Z,1007.54
2019-06-08T01:50:28.250Z,1007.55
2019-06-08T01:51:27.494Z,1007.56
2019-06-08T01:52:27.187Z,1007.51
2019-06-08T01:53:27.189Z,1007.52
2019-06-08T01:54:27.213Z,1007.56
2019-06-08T01:55:27.200Z,1007.55
2019-06-08T01:56:27.198Z,1007.52
2019-06-08T01:57:27.255Z,1007.58
2019-06-08T01:58:27.458Z,1007.56
2019-06-08T01:59:27.422Z,1007.53
2019-06-08T02:00:35.886Z,1007.58
2019-06-08T02:01:27.773Z,1007.58
2019-06-08T02:02:27.841Z,1007.54
2019-06-08T02:03:28.176Z,1007.53
2019-06-08T02:04:28.059Z,1007.56
2019-06-08T02:05:28.184Z,1007.45
2019-06-08T02:06:28.433Z,1007.51
2019-06-08T02:07:28.347Z,1007.60
2019-06-08T02:08:28.529Z,1007.53
2019-06-08T02:09:28.598Z,1007.55
2019-06-08T02:10:27.212Z,1007.59
2019-06-08T02:11:28.691Z,1007.57
2019-06-08T02:12:27.225Z,1007.59
2019-06-08T02:13:27.211Z,1007.53
2019-06-08T02:14:27.217Z,1007.57
2019-06-08T02:15:27.298Z,1007.53
2019-06-08T02:16:27.423Z,1007.54
2019-06-08T02:17:27.385Z,1007.60
2019-06-08T02:18:41.839Z,1007.60
2019-06-08T02:19:28.339Z,1007.64
2019-06-08T02:20:28.621Z,1007.64
2019-06-08T02:21:28.763Z,1007.66
2019-06-08T02:22:27.220Z,1007.64
2019-06-08T02:23:27.240Z,1007.68
2019-06-08T02:24:27.265Z,1007.66
2019-06-08T02:25:27.395Z,1007.61
2019-06-08T02:26:28.834Z,1007.68
2019-06-08T02:27:27.296Z,1007.68
2019-06-08T02:28:27.459Z,1007.64
2019-06-08T02:29:27.474Z,1007.72
2019-06-08T02:30:28.358Z,1007.68
2019-06-08T02:31:27.989Z,1007.68
2019-06-08T02:32:28.538Z,1007.71
2019-06-08T02:33:28.279Z,1007.66
2019-06-08T02:34:28.312Z,1007.68
2019-06-08T02:35:27.969Z,1007.72
2019-06-08T02:36:28.834Z,1007.65
2019-06-08T02:37:28.717Z,1007.67
2019-06-08T02:38:27.593Z,1007.67
2019-06-08T02:39:28.517Z,1007.71
2019-06-08T02:40:27.541Z,1007.71
2019-06-08T02:41:28.841Z,1007.77
2019-06-08T02:42:28.492Z,1007.74
2019-06-08T02:43:28.897Z,1007.77
2019-06-08T02:44:28.302Z,1007.74
2019-06-08T02:45:29.451Z,1007.74
2019-06-08T02:46:28.866Z,1007.72
2019-06-08T02:47:28.471Z,1007.82
2019-06-08T02:48:27.271Z,1007.76
2019-06-08T02:49:28.999Z,1007.67
2019-06-08T02:50:28.480Z,1007.74
2019-06-08T02:51:28.722Z,1007.79
2019-06-08T02:52:27.264Z,1007.75
2019-06-08T02:53:29.143Z,1007.82
2019-06-08T02:54:27.275Z,1007.79
2019-06-08T02:55:28.707Z,1007.88
2019-06-08T02:56:27.267Z,1007.85
2019-06-08T02:57:29.046Z,1007.89
2019-06-08T02:58:29.102Z,1007.94
2019-06-08T02:59:27.275Z,1007.90
2019-06-08T03:00:27.272Z,1007.80
2019-06-08T03:01:27.296Z,1007.95
2019-06-08T03:02:27.285Z,1008.01
2019-06-08T03:03:27.293Z,1007.89
2019-06-08T03:04:27.283Z,1008.04
2019-06-08T03:05:27.279Z,1008.03
2019-06-08T03:06:27.273Z,1007.98
2019-06-08T03:07:27.282Z,1008.02
2019-06-08T03:08:27.284Z,1007.97
2019-06-08T03:09:27.344Z,1008.04
2019-06-08T03:10:27.282Z,1008.04
2019-06-08T03:11:27.283Z,1008.07
2019-06-08T03:12:27.291Z,1008.14
2019-06-08T03:13:27.289Z,1008.13
2019-06-08T03:14:27.299Z,1008.09
2019-06-08T03:15:27.316Z,1008.15
2019-06-08T03:16:27.499Z,1008.19
2019-06-08T03:17:27.291Z,1008.22
2019-06-08T03:18:27.296Z,1008.24
2019-06-08T03:19:27.298Z,1008.13
2019-06-08T03:20:27.300Z,1008.19
2019-06-08T03:21:27.311Z,1008.24
2019-06-08T03:22:27.298Z,1008.28
2019-06-08T03:23:27.296Z,1008.31
2019-06-08T03:24:27.300Z,1008.26
2019-06-08T03:25:27.341Z,1008.35
2019-06-08T03:26:27.303Z,1008.48
2019-06-08T03:27:27.302Z,1008.36
2019-06-08T03:28:27.324Z,1008.34
2019-06-08T03:29:27.319Z,1008.38
2019-06-08T03:30:28.540Z,1008.36
2019-06-08T03:31:27.317Z,1008.36
2019-06-08T03:32:27.334Z,1008.40
2019-06-08T03:33:27.331Z,1008.39
2019-06-08T03:34:27.338Z,1008.50
2019-06-08T03:35:27.347Z,1008.54
2019-06-08T03:36:27.334Z,1008.54
2019-06-08T03:37:27.308Z,1008.48
2019-06-08T03:38:27.330Z,1008.54
2019-06-08T03:39:27.311Z,1008.44
2019-06-08T03:40:27.314Z,1008.47
2019-06-08T03:41:27.528Z,1008.59
2019-06-08T03:42:27.333Z,1008.55
2019-06-08T03:43:27.329Z,1008.56
2019-06-08T03:44:27.351Z,1008.62
2019-06-08T03:45:27.320Z,1008.64
2019-06-08T03:46:27.406Z,1008.59
2019-06-08T03:47:27.341Z,1008.61
2019-06-08T03:48:27.338Z,1008.63
2019-06-08T03:49:41.190Z,1008.63
2019-06-08T03:50:27.343Z,1008.67
2019-06-08T03:51:27.330Z,1008.68
2019-06-08T03:52:27.344Z,1008.73
2019-06-08T03:53:27.338Z,1008.74
2019-06-08T03:54:27.338Z,1008.72
2019-06-08T03:55:27.387Z,1008.75
2019-06-08T03:56:27.343Z,1008.77
2019-06-08T03:57:27.347Z,1008.73
2019-06-08T03:58:27.332Z,1008.83
2019-06-08T03:59:27.351Z,1008.85
2019-06-08T04:00:27.341Z,1008.82
2019-06-08T04:01:27.336Z,1008.81
2019-06-08T04:02:27.356Z,1008.84
2019-06-08T04:03:27.370Z,1008.84
2019-06-08T04:04:27.365Z,1008.84
2019-06-08T04:05:27.356Z,1008.80
2019-06-08T04:06:27.339Z,1008.80
2019-06-08T04:07:27.342Z,1008.86
2019-06-08T04:08:27.357Z,1008.86
2019-06-08T04:09:27.343Z,1008.86
2019-06-08T04:10:27.348Z,1008.81
2019-06-08T04:11:27.370Z,1008.87
2019-06-08T04:12:27.358Z,1008.90
2019-06-08T04:13:27.357Z,1008.88
2019-06-08T04:14:27.348Z,1008.94
2019-06-08T04:15:27.354Z,1008.97
2019-06-08T04:16:27.364Z,1009.01
2019-06-08T04:17:27.356Z,1008.97
2019-06-08T04:18:27.354Z,1008.97
2019-06-08T04:19:27.362Z,1008.97
2019-06-08T04:20:27.359Z,1008.95
2019-06-08T04:21:27.374Z,1008.92
2019-06-08T04:22:27.364Z,1008.90
2019-06-08T04:23:27.370Z,1008.90
2019-06-08T04:24:27.382Z,1008.93
2019-06-08T04:25:27.376Z,1008.94
2019-06-08T04:26:27.373Z,1008.97
2019-06-08T04:27:27.369Z,1008.93
2019-06-08T04:28:27.364Z,1008.98
2019-06-08T04:29:27.559Z,1008.94
2019-06-08T04:30:27.367Z,1008.96
2019-06-08T04:31:27.391Z,1009.00
2019-06-08T04:32:27.372Z,1009.01
2019-06-08T04:33:27.365Z,1009.04
2019-06-08T04:34:27.409Z,1009.04
2019-06-08T04:35:27.372Z,1009.10
2019-06-08T04:36:27.386Z,1009.01
2019-06-08T04:37:27.379Z,1009.12
2019-06-08T04:38:27.372Z,1009.20
2019-06-08T04:39:27.380Z,1009.17
2019-06-08T04:40:27.391Z,1009.19
2019-06-08T04:41:27.575Z,1009.22
2019-06-08T04:42:27.390Z,1009.24
2019-06-08T04:43:27.375Z,1009.29
2019-06-08T04:44:27.397Z,1009.33
2019-06-08T04:45:27.389Z,1009.32
2019-06-08T04:46:27.372Z,1009.36
2019-06-08T04:47:27.386Z,1009.35
2019-06-08T04:48:27.382Z,1009.38
2019-06-08T04:49:27.381Z,1009.40
2019-06-08T04:50:27.409Z,1009.31
2019-06-08T04:51:27.487Z,1009.35
2019-06-08T04:52:27.386Z,1009.43
2019-06-08T04:53:27.402Z,1009.44
2019-06-08T04:54:27.418Z,1009.48
2019-06-08T04:55:27.394Z,1009.51
2019-06-08T04:56:27.394Z,1009.47
2019-06-08T04:57:27.398Z,1009.44
2019-06-08T04:58:27.388Z,1009.37
2019-06-08T04:59:27.402Z,1009.39
2019-06-08T05:00:31.224Z,1009.47
2019-06-08T05:01:27.394Z,1009.45
2019-06-08T05:02:27.394Z,1009.43
2019-06-08T05:03:27.410Z,1009.42
2019-06-08T05:04:27.404Z,1009.45
2019-06-08T05:05:27.393Z,1009.50
2019-06-08T05:06:27.404Z,1009.47
2019-06-08T05:07:27.398Z,1009.52
2019-06-08T05:08:27.398Z,1009.48
2019-06-08T05:09:27.413Z,1009.52
2019-06-08T05:10:27.435Z,1009.49
2019-06-08T05:11:27.417Z,1009.51
2019-06-08T05:12:27.414Z,1009.49
2019-06-08T05:13:27.402Z,1009.53
2019-06-08T05:14:27.403Z,1009.56
2019-06-08T05:15:27.401Z,1009.59
2019-06-08T05:16:27.403Z,1009.52
2019-06-08T05:17:27.441Z,1009.57
2019-06-08T05:18:27.425Z,1009.56
2019-06-08T05:19:27.405Z,1009.56
2019-06-08T05:20:38.409Z,1009.56
2019-06-08T05:21:27.424Z,1009.53
2019-06-08T05:22:27.410Z,1009.43
2019-06-08T05:23:27.616Z,1009.62
2019-06-08T05:24:27.417Z,1009.65
2019-06-08T05:25:27.413Z,1009.56
2019-06-08T05:26:27.408Z,1009.68
2019-06-08T05:27:27.412Z,1009.73
2019-06-08T05:28:27.410Z,1009.67
2019-06-08T05:29:27.422Z,1009.72
2019-06-08T05:30:28.185Z,1009.70
2019-06-08T05:31:27.414Z,1009.75
2019-06-08T05:32:27.418Z,1009.72
2019-06-08T05:33:27.420Z,1009.75
2019-06-08T05:34:27.433Z,1009.72
2019-06-08T05:35:27.421Z,1009.79
2019-06-08T05:36:27.416Z,1009.74
2019-06-08T05:37:27.413Z,1009.74
2019-06-08T05:38:27.423Z,1009.73
2019-06-08T05:39:27.426Z,1009.73
2019-06-08T05:40:27.423Z,1009.73
2019-06-08T05:41:27.427Z,1009.75
2019-06-08T05:42:27.433Z,1009.80
2019-06-08T05:43:27.426Z,1009.74
2019-06-08T05:44:27.436Z,1009.72
2019-06-08T05:45:27.454Z,1009.84
2019-06-08T05:46:27.440Z,1009.77
2019-06-08T05:47:27.441Z,1009.76
2019-06-08T05:48:27.456Z,1009.81
2019-06-08T05:49:27.441Z,1009.75
2019-06-08T05:50:27.434Z,1009.72
2019-06-08T05:51:27.437Z,1009.78
2019-06-08T05:52:27.430Z,1009.78
2019-06-08T05:53:27.427Z,1009.84
2019-06-08T05:54:27.459Z,1009.79
2019-06-08T05:55:27.443Z,1009.85
2019-06-08T05:56:27.452Z,1009.85
2019-06-08T05:57:27.447Z,1009.83
2019-06-08T05:58:27.444Z,1009.95
2019-06-08T05:59:27.462Z,1009.92
2019-06-08T06:00:27.451Z,1009.97
2019-06-08T06:01:27.432Z,1009.86
2019-06-08T06:02:27.431Z,1010.02
2019-06-08T06:03:27.451Z,1010.01
2019-06-08T06:04:27.440Z,1009.99
2019-06-08T06:05:27.456Z,1009.91
2019-06-08T06:06:27.444Z,1010.11
2019-06-08T06:07:27.441Z,1010.07
2019-06-08T06:08:27.443Z,1010.07
2019-06-08T06:09:27.434Z,1010.09
2019-06-08T06:10:27.489Z,1010.11
2019-06-08T06:11:27.445Z,1010.11
2019-06-08T06:12:27.472Z,1010.10
2019-06-08T06:13:27.445Z,1010.11
2019-06-08T06:14:27.480Z,1010.14
2019-06-08T06:15:27.445Z,1010.11
2019-06-08T06:16:27.456Z,1010.10
2019-06-08T06:17:27.449Z,1010.27
2019-06-08T06:18:27.440Z,1010.18
2019-06-08T06:19:27.458Z,1010.26
2019-06-08T06:20:27.447Z,1010.34
2019-06-08T06:21:27.446Z,1010.25
2019-06-08T06:22:27.459Z,1010.32
2019-06-08T06:23:27.456Z,1010.28
2019-06-08T06:24:27.447Z,1010.23
2019-06-08T06:25:27.488Z,1010.31
2019-06-08T06:26:27.454Z,1010.31
2019-06-08T06:27:27.466Z,1010.37
2019-06-08T06:28:27.467Z,1010.29
2019-06-08T06:29:27.463Z,1010.36
2019-06-08T06:30:27.465Z,1010.34
2019-06-08T06:31:27.469Z,1010.43
2019-06-08T06:32:27.472Z,1010.34
2019-06-08T06:33:27.489Z,1010.42
2019-06-08T06:34:27.474Z,1010.44
2019-06-08T06:35:27.684Z,1010.53
2019-06-08T06:36:27.460Z,1010.55
2019-06-08T06:37:27.459Z,1010.49
2019-06-08T06:38:27.458Z,1010.50
2019-06-08T06:39:27.473Z,1010.52
2019-06-08T06:40:27.470Z,1010.55
2019-06-08T06:41:27.462Z,1010.61
2019-06-08T06:42:27.456Z,1010.63
2019-06-08T06:43:27.462Z,1010.67
2019-06-08T06:44:27.459Z,1010.56
2019-06-08T06:45:27.476Z,1010.65
2019-06-08T06:46:27.507Z,1010.68
2019-06-08T06:47:27.470Z,1010.69
2019-06-08T06:48:27.457Z,1010.64
2019-06-08T06:49:27.460Z,1010.73
2019-06-08T06:50:27.463Z,1010.78
2019-06-08T06:51:27.510Z,1010.85
2019-06-08T06:52:27.464Z,1010.65
2019-06-08T06:53:27.484Z,1010.78
2019-06-08T06:54:27.465Z,1010.79
2019-06-08T06:55:27.461Z,1010.88
2019-06-08T06:56:27.465Z,1010.89
2019-06-08T06:57:27.467Z,1010.76
2019-06-08T06:58:27.463Z,1010.95
2019-06-08T06:59:27.471Z,1010.83
2019-06-08T07:00:27.465Z,1010.92
2019-06-08T07:01:27.482Z,1011.05
2019-06-08T07:02:27.482Z,1011.04
2019-06-08T07:03:27.461Z,1011.07
2019-06-08T07:04:27.503Z,1011.02
2019-06-08T07:05:27.495Z,1011.18
2019-06-08T07:06:27.479Z,1011.10
2019-06-08T07:07:27.470Z,1011.19
2019-06-08T07:08:27.482Z,1011.11
2019-06-08T07:09:27.468Z,1011.23
2019-06-08T07:10:27.471Z,1011.22
2019-06-08T07:11:27.467Z,1011.22
2019-06-08T07:12:27.467Z,1011.11
2019-06-08T07:13:27.479Z,1011.22
2019-06-08T07:14:27.480Z,1011.24
2019-06-08T07:15:27.504Z,1011.18
2019-06-08T07:16:27.479Z,1011.17
2019-06-08T07:17:27.488Z,1011.24
2019-06-08T07:18:27.470Z,1011.24
2019-06-08T07:19:27.679Z,1011.23
2019-06-08T07:20:27.574Z,1011.21
2019-06-08T07:21:40.908Z,1011.29
2019-06-08T07:22:27.477Z,1011.31
2019-06-08T07:23:27.488Z,1011.22
2019-06-08T07:24:27.731Z,1011.32
2019-06-08T07:25:27.505Z,1011.29
2019-06-08T07:26:27.480Z,1011.31
2019-06-08T07:27:27.499Z,1011.32
2019-06-08T07:28:27.477Z,1011.35
2019-06-08T07:29:27.488Z,1011.30
2019-06-08T07:30:27.497Z,1011.36
2019-06-08T07:31:27.499Z,1011.34
2019-06-08T07:32:27.491Z,1011.25
2019-06-08T07:33:27.696Z,1011.35
2019-06-08T07:34:27.487Z,1011.28
2019-06-08T07:35:27.498Z,1011.38
2019-06-08T07:36:27.484Z,1011.40
2019-06-08T07:37:27.494Z,1011.37
2019-06-08T07:38:27.487Z,1011.41
2019-06-08T07:39:27.479Z,1011.33
2019-06-08T07:40:27.492Z,1011.42
2019-06-08T07:41:27.515Z,1011.49
2019-06-08T07:42:27.503Z,1011.47
2019-06-08T07:43:27.536Z,1011.44
2019-06-08T07:44:27.503Z,1011.41
2019-06-08T07:45:27.503Z,1011.44
2019-06-08T07:46:27.492Z,1011.39
2019-06-08T07:47:27.492Z,1011.51
2019-06-08T07:48:27.487Z,1011.50
2019-06-08T07:49:27.493Z,1011.55
2019-06-08T07:50:27.490Z,1011.44
2019-06-08T07:51:27.489Z,1011.58
2019-06-08T07:52:27.511Z,1011.41
2019-06-08T07:53:27.491Z,1011.52
2019-06-08T07:54:27.507Z,1011.50
2019-06-08T07:55:27.500Z,1011.54
2019-06-08T07:56:27.494Z,1011.54
2019-06-08T07:57:27.494Z,1011.62
2019-06-08T07:58:27.496Z,1011.55
2019-06-08T07:59:27.501Z,1011.65
2019-06-08T08:00:27.501Z,1011.62
2019-06-08T08:01:36.226Z,1011.61
2019-06-08T08:02:27.492Z,1011.64
2019-06-08T08:03:27.513Z,1011.64
2019-06-08T08:04:27.501Z,1011.69
2019-06-08T08:05:27.494Z,1011.71
2019-06-08T08:06:30.318Z,1011.69
2019-06-08T08:07:27.698Z,1011.68
2019-06-08T08:08:27.516Z,1011.75
2019-06-08T08:09:27.501Z,1011.74
2019-06-08T08:10:27.500Z,1011.80
2019-06-08T08:11:27.742Z,1011.60
2019-06-08T08:12:27.506Z,1011.78
2019-06-08T08:13:27.705Z,1011.76
2019-06-08T08:14:27.514Z,1011.89
2019-06-08T08:15:27.519Z,1011.80
2019-06-08T08:16:27.504Z,1011.78
2019-06-08T08:17:27.508Z,1011.85
2019-06-08T08:18:27.513Z,1011.87
2019-06-08T08:19:27.518Z,1011.73
2019-06-08T08:20:27.539Z,1011.79
2019-06-08T08:21:29.526Z,1011.80
2019-06-08T08:22:29.628Z,1011.94
2019-06-08T08:23:27.549Z,1011.82
2019-06-08T08:24:27.543Z,1011.68
2019-06-08T08:25:28.145Z,1011.87
2019-06-08T08:26:30.447Z,1011.87
2019-06-08T08:27:28.104Z,1011.97
2019-06-08T08:28:27.985Z,1011.93
2019-06-08T08:29:28.239Z,1011.85
2019-06-08T08:30:28.415Z,1011.86
2019-06-08T08:31:27.998Z,1011.84
2019-06-08T08:32:28.329Z,1011.83
2019-06-08T08:33:27.766Z,1011.88
2019-06-08T08:34:28.383Z,1011.93
2019-06-08T08:35:28.066Z,1011.93
2019-06-08T08:36:29.424Z,1011.94
2019-06-08T08:37:28.135Z,1011.89
2019-06-08T08:38:27.541Z,1011.79
2019-06-08T08:39:27.651Z,1012.02
2019-06-08T08:40:28.236Z,1012.00
2019-06-08T08:41:27.931Z,1011.93
2019-06-08T08:42:30.048Z,1011.99
2019-06-08T08:43:28.021Z,1011.76
2019-06-08T08:44:28.325Z,1012.07
2019-06-08T08:45:27.733Z,1012.04
2019-06-08T08:46:28.583Z,1012.01
2019-06-08T08:47:27.727Z,1012.10
2019-06-08T08:48:29.354Z,1012.01
2019-06-08T08:49:28.085Z,1012.03
2019-06-08T08:50:28.299Z,1012.06
2019-06-08T08:51:28.041Z,1012.05
2019-06-08T08:52:36.427Z,1012.09
2019-06-08T08:53:28.025Z,1012.12
2019-06-08T08:54:29.710Z,1012.19
2019-06-08T08:55:27.997Z,1012.21
2019-06-08T08:56:28.067Z,1012.27
2019-06-08T08:57:28.912Z,1012.12
2019-06-08T08:58:28.072Z,1012.20
2019-06-08T08:59:28.035Z,1012.25
2019-06-08T09:00:28.171Z,1012.11
2019-06-08T09:01:28.905Z,1012.26
2019-06-08T09:02:27.776Z,1012.30
2019-06-08T09:03:33.037Z,1012.27
2019-06-08T09:04:27.797Z,1012.25
2019-06-08T09:05:28.138Z,1012.22
2019-06-08T09:06:27.994Z,1012.21
2019-06-08T09:07:27.670Z,1012.28
2019-06-08T09:08:29.730Z,1012.23
2019-06-08T09:09:28.830Z,1012.27
2019-06-08T09:10:28.066Z,1012.27
2019-06-08T09:11:28.906Z,1012.16
2019-06-08T09:12:27.736Z,1012.21
2019-06-08T09:13:28.247Z,1012.17
2019-06-08T09:14:28.078Z,1012.25
2019-06-08T09:15:31.141Z,1012.27
2019-06-08T09:16:28.770Z,1012.36
2019-06-08T09:17:28.034Z,1012.39
2019-06-08T09:18:28.658Z,1012.33
2019-06-08T09:19:28.174Z,1012.38
2019-06-08T09:20:28.565Z,1012.34
2019-06-08T09:21:28.137Z,1012.38
2019-06-08T09:22:28.240Z,1012.43
2019-06-08T09:23:28.104Z,1012.54
2019-06-08T09:24:28.589Z,1012.53
2019-06-08T09:25:28.109Z,1012.57
2019-06-08T09:26:28.805Z,1012.64
2019-06-08T09:27:28.081Z,1012.53
2019-06-08T09:28:28.508Z,1012.79
2019-06-08T09:29:28.871Z,1012.61
2019-06-08T09:30:27.629Z,1012.50
2019-06-08T09:31:30.713Z,1012.67
2019-06-08T09:32:28.184Z,1012.72
2019-06-08T09:33:28.827Z,1012.70
2019-06-08T09:34:28.251Z,1012.74
2019-06-08T09:35:28.037Z,1012.72
2019-06-08T09:36:28.732Z,1012.76
2019-06-08T09:37:28.815Z,1012.77
2019-06-08T09:38:28.665Z,1012.83
2019-06-08T09:39:28.655Z,1012.81
2019-06-08T09:40:31.871Z,1012.83
2019-06-08T09:41:30.866Z,1012.87
2019-06-08T09:42:28.483Z,1012.87
2019-06-08T09:43:28.940Z,1012.89
2019-06-08T09:44:28.081Z,1012.96
2019-06-08T09:45:28.977Z,1012.91
2019-06-08T09:46:27.874Z,1012.86
2019-06-08T09:47:28.019Z,1012.97
2019-06-08T09:48:28.807Z,1012.97
2019-06-08T09:49:28.082Z,1013.06
2019-06-08T09:50:27.850Z,1013.02
2019-06-08T09:51:28.578Z,1013.09
2019-06-08T09:52:28.174Z,1013.12
2019-06-08T09:53:36.628Z,1013.17
2019-06-08T09:54:28.303Z,1013.01
2019-06-08T09:55:28.832Z,1013.04
2019-06-08T09:56:28.241Z,1013.03
2019-06-08T09:57:28.408Z,1013.09
2019-06-08T09:58:29.092Z,1013.10
2019-06-08T09:59:28.488Z,1013.08
2019-06-08T10:00:29.166Z,1013.07
2019-06-08T10:01:28.625Z,1013.14
2019-06-08T10:02:28.320Z,1013.22
2019-06-08T10:03:28.197Z,1013.06
2019-06-08T10:04:29.197Z,1013.16
2019-06-08T10:05:27.713Z,1013.17
2019-06-08T10:06:27.606Z,1013.20
2019-06-08T10:07:31.075Z,1013.25
2019-06-08T10:08:28.322Z,1013.25
2019-06-08T10:09:28.377Z,1013.21
2019-06-08T10:10:27.614Z,1013.27
2019-06-08T10:11:28.164Z,1013.17
2019-06-08T10:12:28.204Z,1013.25
2019-06-08T10:13:28.040Z,1013.29
2019-06-08T10:14:28.219Z,1013.27
2019-06-08T10:15:27.905Z,1013.37
2019-06-08T10:16:30.530Z,1013.34
2019-06-08T10:17:27.944Z,1013.37
2019-06-08T10:18:28.504Z,1013.40
2019-06-08T10:19:27.637Z,1013.36
2019-06-08T10:20:28.830Z,1013.35
2019-06-08T10:21:28.469Z,1013.38
2019-06-08T10:22:28.321Z,1013.40
2019-06-08T10:23:34.070Z,1013.54
2019-06-08T10:24:27.635Z,1013.51
2019-06-08T10:25:28.687Z,1013.49
2019-06-08T10:26:28.125Z,1013.54
2019-06-08T10:27:28.384Z,1013.49
2019-06-08T10:28:28.914Z,1013.41
2019-06-08T10:29:27.629Z,1013.56
2019-06-08T10:30:28.348Z,1013.53
2019-06-08T10:31:36.514Z,1013.49
2019-06-08T10:32:28.196Z,1013.48
2019-06-08T10:33:28.186Z,1013.56
2019-06-08T10:34:29.614Z,1013.49
2019-06-08T10:35:28.353Z,1013.53
2019-06-08T10:36:28.408Z,1013.50
2019-06-08T10:37:28.344Z,1013.48
2019-06-08T10:38:28.942Z,1013.51
2019-06-08T10:39:28.345Z,1013.51
2019-06-08T10:40:28.622Z,1013.55
2019-06-08T10:41:27.953Z,1013.48
2019-06-08T10:42:27.658Z,1013.53
2019-06-08T10:43:28.868Z,1013.56
2019-06-08T10:44:28.373Z,1013.50
2019-06-08T10:45:28.649Z,1013.53
2019-06-08T10:46:27.656Z,1013.53
2019-06-08T10:47:29.704Z,1013.46
2019-06-08T10:48:27.749Z,1013.54
2019-06-08T10:49:28.711Z,1013.54
2019-06-08T10:50:28.824Z,1013.55
2019-06-08T10:51:27.664Z,1013.53
2019-06-08T10:52:28.231Z,1013.58
2019-06-08T10:53:29.774Z,1013.61
2019-06-08T10:54:27.832Z,1013.50
2019-06-08T10:55:28.083Z,1013.68
2019-06-08T10:56:28.392Z,1013.71
2019-06-08T10:57:28.068Z,1013.58
2019-06-08T10:58:28.346Z,1013.59
2019-06-08T10:59:28.938Z,1013.65
2019-06-08T11:00:28.300Z,1013.70
2019-06-08T11:01:28.315Z,1013.64
2019-06-08T11:02:28.120Z,1013.60
2019-06-08T11:03:30.465Z,1013.67
2019-06-08T11:04:28.670Z,1013.61
2019-06-08T11:05:28.135Z,1013.61
2019-06-08T11:06:27.677Z,1013.65
2019-06-08T11:07:28.043Z,1013.64
2019-06-08T11:08:27.891Z,1013.67
2019-06-08T11:09:28.528Z,1013.66
2019-06-08T11:10:27.883Z,1013.34
2019-06-08T11:11:28.495Z,1013.67
2019-06-08T11:12:28.303Z,1013.68
2019-06-08T11:13:28.329Z,1013.69
2019-06-08T11:14:27.915Z,1013.74
2019-06-08T11:15:29.703Z,1013.72
2019-06-08T11:16:28.683Z,1013.68
2019-06-08T11:17:28.077Z,1013.76
2019-06-08T11:18:28.651Z,1013.82
2019-06-08T11:19:27.682Z,1013.81
2019-06-08T11:20:30.024Z,1013.80
2019-06-08T11:21:28.595Z,1013.84
2019-06-08T11:22:27.906Z,1013.84
2019-06-08T11:23:28.759Z,1013.80
2019-06-08T11:24:28.930Z,1013.81
2019-06-08T11:25:28.087Z,1013.81
2019-06-08T11:26:28.922Z,1013.86
2019-06-08T11:27:28.535Z,1013.87
2019-06-08T11:28:28.364Z,1013.87
2019-06-08T11:29:30.633Z,1013.81
2019-06-08T11:30:30.440Z,1013.81
2019-06-08T11:31:31.198Z,1013.81
2019-06-08T11:32:27.714Z,1013.79
2019-06-08T11:33:30.269Z,1013.80
2019-06-08T11:34:28.737Z,1013.85
2019-06-08T11:35:28.608Z,1013.93
2019-06-08T11:36:28.297Z,1013.83
2019-06-08T11:37:27.741Z,1013.86
2019-06-08T11:38:28.873Z,1014.01
2019-06-08T11:39:28.697Z,1014.04
2019-06-08T11:40:27.931Z,1014.04
2019-06-08T11:41:27.968Z,1014.15
2019-06-08T11:42:28.516Z,1014.04
2019-06-08T11:43:28.711Z,1014.09
2019-06-08T11:44:27.763Z,1014.09
2019-06-08T11:45:27.738Z,1014.06
2019-06-08T11:46:28.180Z,1014.07
2019-06-08T11:47:30.946Z,1014.04
2019-06-08T11:48:28.528Z,1014.02
2019-06-08T11:49:27.973Z,1014.04
2019-06-08T11:50:27.723Z,1014.05
2019-06-08T11:51:29.755Z,1014.05
2019-06-08T11:52:28.592Z,1014.12
2019-06-08T11:53:28.808Z,1014.11
2019-06-08T11:54:36.863Z,1014.18
2019-06-08T11:55:28.234Z,1014.15
2019-06-08T11:56:27.933Z,1014.18
2019-06-08T11:57:28.354Z,1014.10
2019-06-08T11:58:28.346Z,1014.12
2019-06-08T11:59:28.528Z,1014.11
2019-06-08T12:00:30.909Z,1014.08
2019-06-08T12:01:27.795Z,1014.14
2019-06-08T12:02:27.743Z,1014.12
2019-06-08T12:03:30.378Z,1014.05
2019-06-08T12:04:28.327Z,1014.14
2019-06-08T12:05:27.913Z,1014.16